Terminal Aerodrome Forecast
Issued by NWS

Current Version | Previous Version | Graphics & Text | Print | Product List | Glossary On
Versions: 1 2 3 4 5 6 7 8 9 10 11 12 13 14 15 16 17 18 19 20 21 22
946
FTUS41 KILN 051258 AAB
TAFLUK
TAF AMD
KLUK 051258Z 0513/0612 32005KT P6SM OVC019
     FM051800 VRB03KT P6SM SCT020 BKN250
     FM052100 11004KT P6SM BKN250
     FM060200 11008KT P6SM BKN080
     FM061000 09008KT P6SM -RA BKN025=

USA.gov is the U.S. government's official web portal to all federal, state and local government web resources and services.